12°C Temp
11°C Dewpoint
94% Humidity
Temperature
5 KM/H
3 MPH
3 KTS
170°
Due South

Wind Speed
Mostly Cloudy
Conditions
Pressure 1021 (hPa) - 30.15 (in)
Visibility 6.0 (mi) - 9.7 (km)

Current Conditions
LECO
Location 50(km)
Metar :LECO 290500Z 17003KT 9999 BKN014 12/11 Q1021 TEMPO BKN010
Wed 29th May 07:00 am

Airport
  Metar Aviation API Data Provided by https://www.checkwx.com/ PHP scripts by weather34.com ©2024